sensor_id;sensor_type;location;lat;lon;timestamp;pressure;altitude;pressure_sealevel;temperature;humidity
7768;BME280;3928;42.626;23.382;2023-04-04T00:01:47;92749.19;;;12.53;88.72
7768;BME280;3928;42.626;23.382;2023-04-04T00:04:14;92755.09;;;12.55;88.60
7768;BME280;3928;42.626;23.382;2023-04-04T00:06:41;92752.22;;;12.44;88.14
7768;BME280;3928;42.626;23.382;2023-04-04T00:09:11;92748.94;;;12.40;87.87
7768;BME280;3928;42.626;23.382;2023-04-04T00:11:40;92761.72;;;12.24;88.46
7768;BME280;3928;42.626;23.382;2023-04-04T00:14:07;92744.56;;;12.06;88.57
7768;BME280;3928;42.626;23.382;2023-04-04T00:16:34;92749.41;;;11.95;89.77
7768;BME280;3928;42.626;23.382;2023-04-04T00:19:01;92758.81;;;11.96;89.75
7768;BME280;3928;42.626;23.382;2023-04-04T00:21:27;92758.22;;;11.70;90.24
7768;BME280;3928;42.626;23.382;2023-04-04T00:23:55;92764.63;;;11.62;90.46
7768;BME280;3928;42.626;23.382;2023-04-04T00:26:23;92686.66;;;11.25;90.15
7768;BME280;3928;42.626;23.382;2023-04-04T00:28:50;92752.47;;;11.65;90.46
7768;BME280;3928;42.626;23.382;2023-04-04T00:31:17;92759.09;;;11.32;91.71
7768;BME280;3928;42.626;23.382;2023-04-04T00:33:44;92751.41;;;11.13;93.06
7768;BME280;3928;42.626;23.382;2023-04-04T00:36:11;92755.88;;;11.08;94.03
7768;BME280;3928;42.626;23.382;2023-04-04T00:38:38;92705.69;;;10.82;94.26
7768;BME280;3928;42.626;23.382;2023-04-04T00:41:05;92745.16;;;11.19;94.73
7768;BME280;3928;42.626;23.382;2023-04-04T00:43:34;92722.47;;;11.28;95.02
7768;BME280;3928;42.626;23.382;2023-04-04T00:46:03;92741.00;;;11.54;94.73
7768;BME280;3928;42.626;23.382;2023-04-04T00:48:30;92722.19;;;11.53;93.75
7768;BME280;3928;42.626;23.382;2023-04-04T00:50:57;92731.41;;;11.57;93.16
7768;BME280;3928;42.626;23.382;2023-04-04T00:53:24;92716.38;;;11.50;93.60
7768;BME280;3928;42.626;23.382;2023-04-04T00:55:51;92715.09;;;11.58;93.05
7768;BME280;3928;42.626;23.382;2023-04-04T00:58:18;92723.84;;;11.54;92.95
7768;BME280;3928;42.626;23.382;2023-04-04T01:00:46;92715.59;;;11.29;94.14
7768;BME280;3928;42.626;23.382;2023-04-04T01:03:13;92701.03;;;11.29;94.12
7768;BME280;3928;42.626;23.382;2023-04-04T01:05:39;92728.41;;;11.48;93.48
7768;BME280;3928;42.626;23.382;2023-04-04T01:08:06;92728.56;;;11.26;94.23
7768;BME280;3928;42.626;23.382;2023-04-04T01:10:33;92718.56;;;11.20;94.51
7768;BME280;3928;42.626;23.382;2023-04-04T01:13:00;92724.03;;;11.12;94.89
7768;BME280;3928;42.626;23.382;2023-04-04T01:15:27;92737.69;;;11.12;96.45
7768;BME280;3928;42.626;23.382;2023-04-04T01:17:58;92722.81;;;10.81;96.71
7768;BME280;3928;42.626;23.382;2023-04-04T01:20:29;92710.13;;;10.78;97.38
7768;BME280;3928;42.626;23.382;2023-04-04T01:22:58;92727.09;;;11.01;97.91
7768;BME280;3928;42.626;23.382;2023-04-04T01:25:28;92744.25;;;11.20;97.29
7768;BME280;3928;42.626;23.382;2023-04-04T01:27:56;92744.66;;;11.29;95.71
7768;BME280;3928;42.626;23.382;2023-04-04T01:30:26;92715.66;;;10.88;95.54
7768;BME280;3928;42.626;23.382;2023-04-04T01:33:00;92730.50;;;11.02;95.09
7768;BME280;3928;42.626;23.382;2023-04-04T01:35:30;92733.81;;;11.23;94.20
7768;BME280;3928;42.626;23.382;2023-04-04T01:38:07;92734.03;;;11.18;94.11
7768;BME280;3928;42.626;23.382;2023-04-04T01:40:42;92734.81;;;11.39;93.65
7768;BME280;3928;42.626;23.382;2023-04-04T01:43:11;92730.16;;;11.47;93.94
7768;BME280;3928;42.626;23.382;2023-04-04T01:45:38;92733.44;;;11.51;91.14
7768;BME280;3928;42.626;23.382;2023-04-04T01:48:06;92721.91;;;11.59;89.88
7768;BME280;3928;42.626;23.382;2023-04-04T01:50:35;92716.63;;;11.62;89.76
7768;BME280;3928;42.626;23.382;2023-04-04T01:53:02;92703.97;;;11.58;89.58
7768;BME280;3928;42.626;23.382;2023-04-04T01:55:29;92702.69;;;11.49;89.53
7768;BME280;3928;42.626;23.382;2023-04-04T01:57:57;92705.66;;;11.40;90.63
7768;BME280;3928;42.626;23.382;2023-04-04T02:00:24;92707.00;;;11.49;89.92
7768;BME280;3928;42.626;23.382;2023-04-04T02:02:51;92705.13;;;11.15;89.08
7768;BME280;3928;42.626;23.382;2023-04-04T02:05:18;92691.63;;;11.09;89.68
7768;BME280;3928;42.626;23.382;2023-04-04T02:07:46;92677.47;;;11.01;89.66
7768;BME280;3928;42.626;23.382;2023-04-04T02:10:14;92680.69;;;11.06;89.93
7768;BME280;3928;42.626;23.382;2023-04-04T02:12:41;92705.88;;;11.17;89.55
7768;BME280;3928;42.626;23.382;2023-04-04T02:15:10;92710.25;;;11.15;89.66
7768;BME280;3928;42.626;23.382;2023-04-04T02:17:37;92689.34;;;11.03;89.48
7768;BME280;3928;42.626;23.382;2023-04-04T02:20:05;92710.94;;;11.18;89.57
7768;BME280;3928;42.626;23.382;2023-04-04T02:22:32;92696.94;;;11.25;89.71
7768;BME280;3928;42.626;23.382;2023-04-04T02:24:59;92698.53;;;11.28;89.21
7768;BME280;3928;42.626;23.382;2023-04-04T02:27:27;92700.69;;;11.37;89.01
7768;BME280;3928;42.626;23.382;2023-04-04T02:29:54;92694.91;;;11.32;88.49
7768;BME280;3928;42.626;23.382;2023-04-04T02:32:23;92707.34;;;11.41;88.68
7768;BME280;3928;42.626;23.382;2023-04-04T02:34:49;92634.53;;;11.04;88.81
7768;BME280;3928;42.626;23.382;2023-04-04T02:37:16;92702.06;;;11.44;89.94
7768;BME280;3928;42.626;23.382;2023-04-04T02:39:43;92699.28;;;11.49;89.66
7768;BME280;3928;42.626;23.382;2023-04-04T02:42:10;92712.97;;;11.49;89.22
7768;BME280;3928;42.626;23.382;2023-04-04T02:44:36;92708.84;;;11.45;89.42
7768;BME280;3928;42.626;23.382;2023-04-04T02:47:04;92701.09;;;11.28;89.32
7768;BME280;3928;42.626;23.382;2023-04-04T02:49:33;92675.31;;;11.10;89.38
7768;BME280;3928;42.626;23.382;2023-04-04T02:52:00;92708.38;;;11.37;89.20
7768;BME280;3928;42.626;23.382;2023-04-04T02:54:27;92707.59;;;11.35;89.82
7768;BME280;3928;42.626;23.382;2023-04-04T02:56:54;92706.22;;;11.47;89.99
7768;BME280;3928;42.626;23.382;2023-04-04T02:59:20;92690.13;;;11.43;90.18
7768;BME280;3928;42.626;23.382;2023-04-04T03:01:47;92708.72;;;11.48;89.53
7768;BME280;3928;42.626;23.382;2023-04-04T03:04:14;92709.16;;;11.39;89.77
7768;BME280;3928;42.626;23.382;2023-04-04T03:06:43;92708.84;;;11.45;89.53
7768;BME280;3928;42.626;23.382;2023-04-04T03:09:09;92705.78;;;11.56;89.30
7768;BME280;3928;42.626;23.382;2023-04-04T03:11:36;92711.63;;;11.59;88.93
7768;BME280;3928;42.626;23.382;2023-04-04T03:14:03;92685.97;;;11.40;89.44
7768;BME280;3928;42.626;23.382;2023-04-04T03:16:30;92705.88;;;11.54;89.30
7768;BME280;3928;42.626;23.382;2023-04-04T03:18:57;92707.03;;;11.47;89.67
7768;BME280;3928;42.626;23.382;2023-04-04T03:21:24;92705.94;;;11.53;89.39
7768;BME280;3928;42.626;23.382;2023-04-04T03:23:52;92702.63;;;11.51;88.25
7768;BME280;3928;42.626;23.382;2023-04-04T03:26:19;92680.81;;;11.40;87.94
7768;BME280;3928;42.626;23.382;2023-04-04T03:28:45;92691.22;;;11.56;88.39
7768;BME280;3928;42.626;23.382;2023-04-04T03:31:12;92693.72;;;11.58;88.63
7768;BME280;3928;42.626;23.382;2023-04-04T03:33:39;92701.81;;;11.67;88.77
7768;BME280;3928;42.626;23.382;2023-04-04T03:36:09;92691.38;;;11.53;87.32
7768;BME280;3928;42.626;23.382;2023-04-04T03:38:36;92707.88;;;11.48;86.95
7768;BME280;3928;42.626;23.382;2023-04-04T03:41:05;92707.03;;;11.47;87.96
7768;BME280;3928;42.626;23.382;2023-04-04T03:43:32;92711.41;;;11.45;88.13
7768;BME280;3928;42.626;23.382;2023-04-04T03:46:00;92715.13;;;11.39;87.60
7768;BME280;3928;42.626;23.382;2023-04-04T03:48:27;92710.81;;;11.40;87.47
7768;BME280;3928;42.626;23.382;2023-04-04T03:50:55;92693.59;;;11.42;87.81
7768;BME280;3928;42.626;23.382;2023-04-04T03:53:23;92709.59;;;11.66;88.28
7768;BME280;3928;42.626;23.382;2023-04-04T03:55:50;92712.41;;;11.80;88.85
7768;BME280;3928;42.626;23.382;2023-04-04T03:58:19;92662.47;;;11.48;88.69
7768;BME280;3928;42.626;23.382;2023-04-04T04:00:46;92704.25;;;11.89;88.30
7768;BME280;3928;42.626;23.382;2023-04-04T04:03:13;92676.81;;;11.71;88.78
7768;BME280;3928;42.626;23.382;2023-04-04T04:05:39;92701.47;;;11.94;88.91
7768;BME280;3928;42.626;23.382;2023-04-04T04:08:06;92694.53;;;11.96;88.89
7768;BME280;3928;42.626;23.382;2023-04-04T04:10:33;92686.94;;;11.93;88.33
7768;BME280;3928;42.626;23.382;2023-04-04T04:13:00;92705.34;;;12.03;87.91
7768;BME280;3928;42.626;23.382;2023-04-04T04:15:28;92696.44;;;12.10;87.41
7768;BME280;3928;42.626;23.382;2023-04-04T04:17:55;92703.00;;;12.15;87.30
7768;BME280;3928;42.626;23.382;2023-04-04T04:20:22;92684.69;;;12.04;86.47
7768;BME280;3928;42.626;23.382;2023-04-04T04:22:49;92704.75;;;12.15;86.07
7768;BME280;3928;42.626;23.382;2023-04-04T04:25:16;92714.03;;;12.17;86.31
7768;BME280;3928;42.626;23.382;2023-04-04T04:27:43;92714.28;;;12.13;85.68
7768;BME280;3928;42.626;23.382;2023-04-04T04:30:10;92726.81;;;12.19;85.32
7768;BME280;3928;42.626;23.382;2023-04-04T04:32:40;92723.38;;;12.20;84.91
7768;BME280;3928;42.626;23.382;2023-04-04T04:35:07;92727.13;;;12.13;85.01
7768;BME280;3928;42.626;23.382;2023-04-04T04:37:34;92718.19;;;12.03;85.95
7768;BME280;3928;42.626;23.382;2023-04-04T04:40:01;92727.97;;;12.13;85.98
7768;BME280;3928;42.626;23.382;2023-04-04T04:42:28;92733.19;;;12.12;85.81
7768;BME280;3928;42.626;23.382;2023-04-04T04:44:55;92740.91;;;12.12;85.54
7768;BME280;3928;42.626;23.382;2023-04-04T04:47:21;92740.59;;;12.18;85.45
7768;BME280;3928;42.626;23.382;2023-04-04T04:49:50;92737.91;;;12.21;85.61
7768;BME280;3928;42.626;23.382;2023-04-04T04:52:16;92723.59;;;12.15;85.38
7768;BME280;3928;42.626;23.382;2023-04-04T04:54:43;92739.63;;;12.20;86.38
7768;BME280;3928;42.626;23.382;2023-04-04T04:57:10;92731.28;;;12.15;86.25
7768;BME280;3928;42.626;23.382;2023-04-04T04:59:37;92741.88;;;12.09;85.99
7768;BME280;3928;42.626;23.382;2023-04-04T05:02:06;92745.41;;;12.07;86.46
7768;BME280;3928;42.626;23.382;2023-04-04T05:04:32;92756.09;;;12.16;87.17
7768;BME280;3928;42.626;23.382;2023-04-04T05:07:01;92753.31;;;11.85;88.53
7768;BME280;3928;42.626;23.382;2023-04-04T05:09:27;92750.19;;;11.97;88.31
7768;BME280;3928;42.626;23.382;2023-04-04T05:11:54;92733.50;;;11.87;88.03
7768;BME280;3928;42.626;23.382;2023-04-04T05:14:21;92758.41;;;12.04;86.99
7768;BME280;3928;42.626;23.382;2023-04-04T05:16:48;92768.59;;;11.88;87.97
7768;BME280;3928;42.626;23.382;2023-04-04T05:19:15;92772.09;;;12.04;88.54
7768;BME280;3928;42.626;23.382;2023-04-04T05:21:42;92777.72;;;12.12;88.01
7768;BME280;3928;42.626;23.382;2023-04-04T05:24:10;92778.22;;;12.20;88.54
7768;BME280;3928;42.626;23.382;2023-04-04T05:26:37;92778.66;;;12.28;87.66
7768;BME280;3928;42.626;23.382;2023-04-04T05:29:04;92767.38;;;12.31;86.71
7768;BME280;3928;42.626;23.382;2023-04-04T05:31:31;92773.25;;;12.35;86.33
7768;BME280;3928;42.626;23.382;2023-04-04T05:33:58;92786.69;;;12.40;86.62
7768;BME280;3928;42.626;23.382;2023-04-04T05:36:24;92791.00;;;12.39;86.42
7768;BME280;3928;42.626;23.382;2023-04-04T05:38:52;92771.41;;;12.37;86.60
7768;BME280;3928;42.626;23.382;2023-04-04T05:41:20;92770.66;;;12.52;90.53
7768;BME280;3928;42.626;23.382;2023-04-04T05:43:48;92780.91;;;12.88;93.90
7768;BME280;3928;42.626;23.382;2023-04-04T05:46:15;92779.91;;;13.25;91.73
7768;BME280;3928;42.626;23.382;2023-04-04T05:48:41;92780.91;;;13.56;84.94
7768;BME280;3928;42.626;23.382;2023-04-04T05:51:08;92786.06;;;13.71;83.50
7768;BME280;3928;42.626;23.382;2023-04-04T05:53:35;92781.25;;;13.81;83.06
7768;BME280;3928;42.626;23.382;2023-04-04T05:56:02;92786.09;;;13.87;82.37
7768;BME280;3928;42.626;23.382;2023-04-04T05:58:31;92783.53;;;13.87;81.64
7768;BME280;3928;42.626;23.382;2023-04-04T06:00:57;92791.41;;;13.84;81.40
7768;BME280;3928;42.626;23.382;2023-04-04T06:03:24;92793.41;;;13.79;81.39
7768;BME280;3928;42.626;23.382;2023-04-04T06:05:53;92791.50;;;13.50;81.48
7768;BME280;3928;42.626;23.382;2023-04-04T06:08:20;92799.03;;;13.54;83.46
7768;BME280;3928;42.626;23.382;2023-04-04T06:10:46;92788.19;;;13.48;83.73
7768;BME280;3928;42.626;23.382;2023-04-04T06:13:13;92794.34;;;13.45;83.63
7768;BME280;3928;42.626;23.382;2023-04-04T06:15:41;92796.53;;;13.53;85.18
7768;BME280;3928;42.626;23.382;2023-04-04T06:18:08;92796.53;;;13.53;85.00
7768;BME280;3928;42.626;23.382;2023-04-04T06:20:35;92786.16;;;13.37;83.88
7768;BME280;3928;42.626;23.382;2023-04-04T06:23:02;92795.91;;;13.48;84.59
7768;BME280;3928;42.626;23.382;2023-04-04T06:25:29;92798.50;;;13.48;83.40
7768;BME280;3928;42.626;23.382;2023-04-04T06:27:56;92804.34;;;13.51;83.00
7768;BME280;3928;42.626;23.382;2023-04-04T06:30:24;92791.72;;;13.12;83.41
7768;BME280;3928;42.626;23.382;2023-04-04T06:32:52;92808.31;;;13.24;84.06
7768;BME280;3928;42.626;23.382;2023-04-04T06:35:19;92818.22;;;13.14;84.38
7768;BME280;3928;42.626;23.382;2023-04-04T06:37:46;92811.03;;;12.86;85.92
7768;BME280;3928;42.626;23.382;2023-04-04T06:40:13;92828.53;;;12.97;85.95
7768;BME280;3928;42.626;23.382;2023-04-04T06:42:47;92829.59;;;12.75;86.87
7768;BME280;3928;42.626;23.382;2023-04-04T06:45:14;92839.19;;;12.89;86.92
7768;BME280;3928;42.626;23.382;2023-04-04T06:47:42;92828.06;;;12.88;86.19
7768;BME280;3928;42.626;23.382;2023-04-04T06:50:11;92830.03;;;13.01;86.91
7768;BME280;3928;42.626;23.382;2023-04-04T06:52:38;92837.63;;;12.86;86.14
7768;BME280;3928;42.626;23.382;2023-04-04T06:55:05;92840.59;;;12.79;87.03
7768;BME280;3928;42.626;23.382;2023-04-04T06:57:32;92846.31;;;12.84;87.03
7768;BME280;3928;42.626;23.382;2023-04-04T06:59:59;92853.72;;;12.73;85.79
7768;BME280;3928;42.626;23.382;2023-04-04T07:02:26;92871.56;;;12.22;81.28
7768;BME280;3928;42.626;23.382;2023-04-04T07:04:53;92867.63;;;11.95;79.05
7768;BME280;3928;42.626;23.382;2023-04-04T07:07:21;92890.34;;;11.26;78.96
7768;BME280;3928;42.626;23.382;2023-04-04T07:09:49;92899.09;;;10.79;81.57
7768;BME280;3928;42.626;23.382;2023-04-04T07:12:16;92903.06;;;10.65;81.70
7768;BME280;3928;42.626;23.382;2023-04-04T07:14:43;92906.97;;;10.31;81.89
7768;BME280;3928;42.626;23.382;2023-04-04T07:17:09;92919.59;;;9.89;82.31
7768;BME280;3928;42.626;23.382;2023-04-04T07:19:36;92925.75;;;9.85;81.62
7768;BME280;3928;42.626;23.382;2023-04-04T07:22:03;92923.22;;;9.60;81.58
7768;BME280;3928;42.626;23.382;2023-04-04T07:24:31;92904.09;;;9.20;80.05
7768;BME280;3928;42.626;23.382;2023-04-04T07:26:58;92934.28;;;9.11;81.62
7768;BME280;3928;42.626;23.382;2023-04-04T07:29:25;92934.78;;;8.95;81.25
7768;BME280;3928;42.626;23.382;2023-04-04T07:31:52;92943.25;;;8.71;80.78
7768;BME280;3928;42.626;23.382;2023-04-04T07:34:18;92961.31;;;8.37;82.19
7768;BME280;3928;42.626;23.382;2023-04-04T07:36:45;92943.44;;;8.37;82.69
7768;BME280;3928;42.626;23.382;2023-04-04T07:39:15;92954.44;;;8.39;82.36
7768;BME280;3928;42.626;23.382;2023-04-04T07:41:43;92941.72;;;8.37;82.38
7768;BME280;3928;42.626;23.382;2023-04-04T07:44:10;92927.81;;;8.16;83.48
7768;BME280;3928;42.626;23.382;2023-04-04T07:46:36;92965.44;;;8.11;83.40
7768;BME280;3928;42.626;23.382;2023-04-04T07:49:03;92958.78;;;8.07;83.84
7768;BME280;3928;42.626;23.382;2023-04-04T07:51:30;92970.44;;;7.86;83.41
7768;BME280;3928;42.626;23.382;2023-04-04T07:53:57;92938.69;;;7.64;81.87
7768;BME280;3928;42.626;23.382;2023-04-04T07:56:23;92968.84;;;7.82;83.11
7768;BME280;3928;42.626;23.382;2023-04-04T07:58:52;92969.03;;;7.75;82.35
7768;BME280;3928;42.626;23.382;2023-04-04T08:01:18;92978.03;;;7.88;81.67
7768;BME280;3928;42.626;23.382;2023-04-04T08:03:45;92981.72;;;7.78;82.31
7768;BME280;3928;42.626;23.382;2023-04-04T08:06:14;92975.19;;;7.68;82.73
7768;BME280;3928;42.626;23.382;2023-04-04T08:08:41;92975.41;;;7.60;82.52
7768;BME280;3928;42.626;23.382;2023-04-04T08:11:09;92992.38;;;7.28;82.55
7768;BME280;3928;42.626;23.382;2023-04-04T08:13:36;92991.28;;;7.39;83.59
7768;BME280;3928;42.626;23.382;2023-04-04T08:16:04;92992.69;;;7.50;83.04
7768;BME280;3928;42.626;23.382;2023-04-04T08:18:32;92980.47;;;7.29;82.55
7768;BME280;3928;42.626;23.382;2023-04-04T08:20:59;92994.16;;;7.57;82.75
7768;BME280;3928;42.626;23.382;2023-04-04T08:23:25;93005.72;;;7.40;82.74
7768;BME280;3928;42.626;23.382;2023-04-04T08:26:09;93009.50;;;7.25;83.42
7768;BME280;3928;42.626;23.382;2023-04-04T08:28:37;93028.16;;;7.27;82.54
7768;BME280;3928;42.626;23.382;2023-04-04T08:31:05;93016.66;;;6.75;85.53
7768;BME280;3928;42.626;23.382;2023-04-04T08:33:32;93031.63;;;6.89;85.61
7768;BME280;3928;42.626;23.382;2023-04-04T08:35:59;93037.06;;;7.11;84.92
7768;BME280;3928;42.626;23.382;2023-04-04T08:38:26;93022.59;;;7.10;85.81
7768;BME280;3928;42.626;23.382;2023-04-04T08:40:53;93040.03;;;6.92;85.79
7768;BME280;3928;42.626;23.382;2023-04-04T08:43:22;93026.03;;;7.09;85.11
7768;BME280;3928;42.626;23.382;2023-04-04T08:45:52;93032.22;;;7.00;84.85
7768;BME280;3928;42.626;23.382;2023-04-04T08:48:21;92976.41;;;6.51;84.82
7768;BME280;3928;42.626;23.382;2023-04-04T08:50:51;93044.84;;;6.67;86.46
7768;BME280;3928;42.626;23.382;2023-04-04T08:53:21;93045.94;;;6.56;87.65
7768;BME280;3928;42.626;23.382;2023-04-04T08:55:48;93047.56;;;6.60;87.41
7768;BME280;3928;42.626;23.382;2023-04-04T08:58:15;93054.28;;;6.64;87.47
7768;BME280;3928;42.626;23.382;2023-04-04T09:00:42;93060.44;;;6.54;86.41
7768;BME280;3928;42.626;23.382;2023-04-04T09:03:13;93060.72;;;6.41;87.28
7768;BME280;3928;42.626;23.382;2023-04-04T09:05:46;93059.94;;;6.77;87.63
7768;BME280;3928;42.626;23.382;2023-04-04T09:08:13;93058.16;;;6.80;88.04
7768;BME280;3928;42.626;23.382;2023-04-04T09:10:43;93068.00;;;6.95;88.57
7768;BME280;3928;42.626;23.382;2023-04-04T09:13:11;93068.50;;;7.10;88.67
7768;BME280;3928;42.626;23.382;2023-04-04T09:15:39;93052.69;;;6.95;87.44
7768;BME280;3928;42.626;23.382;2023-04-04T09:18:07;93072.94;;;7.03;87.02
7768;BME280;3928;42.626;23.382;2023-04-04T09:20:38;93045.22;;;6.89;86.50
7768;BME280;3928;42.626;23.382;2023-04-04T09:23:08;93074.66;;;7.02;87.45
7768;BME280;3928;42.626;23.382;2023-04-04T09:25:36;93068.09;;;6.92;86.76
7768;BME280;3928;42.626;23.382;2023-04-04T09:28:03;93067.63;;;6.75;86.78
7768;BME280;3928;42.626;23.382;2023-04-04T09:30:31;93070.09;;;6.78;86.63
7768;BME280;3928;42.626;23.382;2023-04-04T09:33:01;93078.91;;;6.65;86.19
7768;BME280;3928;42.626;23.382;2023-04-04T09:35:28;93087.06;;;6.79;86.07
7768;BME280;3928;42.626;23.382;2023-04-04T09:37:57;93059.13;;;6.74;85.20
7768;BME280;3928;42.626;23.382;2023-04-04T09:40:25;93062.47;;;6.78;84.79
7768;BME280;3928;42.626;23.382;2023-04-04T09:42:54;93055.44;;;6.86;85.45
7768;BME280;3928;42.626;23.382;2023-04-04T09:45:23;93061.06;;;7.02;85.26
7768;BME280;3928;42.626;23.382;2023-04-04T09:47:51;93073.34;;;6.85;85.23
7768;BME280;3928;42.626;23.382;2023-04-04T09:50:21;93070.97;;;6.77;86.24
7768;BME280;3928;42.626;23.382;2023-04-04T09:52:49;93069.22;;;6.79;84.76
7768;BME280;3928;42.626;23.382;2023-04-04T09:55:16;93074.44;;;7.10;86.20
7768;BME280;3928;42.626;23.382;2023-04-04T09:57:46;93056.25;;;6.90;84.37
7768;BME280;3928;42.626;23.382;2023-04-04T10:00:19;93083.53;;;7.22;85.72
7768;BME280;3928;42.626;23.382;2023-04-04T10:02:47;93092.84;;;7.24;85.13
7768;BME280;3928;42.626;23.382;2023-04-04T10:05:15;93088.59;;;7.25;85.39
7768;BME280;3928;42.626;23.382;2023-04-04T10:07:42;93086.97;;;7.21;84.36
7768;BME280;3928;42.626;23.382;2023-04-04T10:10:09;93097.16;;;7.21;83.15
7768;BME280;3928;42.626;23.382;2023-04-04T10:12:36;93098.84;;;7.22;82.89
7768;BME280;3928;42.626;23.382;2023-04-04T10:15:05;93093.59;;;7.28;83.09
7768;BME280;3928;42.626;23.382;2023-04-04T10:17:36;93107.88;;;7.37;81.47
7768;BME280;3928;42.626;23.382;2023-04-04T10:20:04;93103.59;;;7.01;81.92
7768;BME280;3928;42.626;23.382;2023-04-04T10:22:32;93112.56;;;7.18;82.68
7768;BME280;3928;42.626;23.382;2023-04-04T10:24:59;93114.44;;;7.11;84.35
7768;BME280;3928;42.626;23.382;2023-04-04T10:27:26;93102.50;;;7.10;82.53
7768;BME280;3928;42.626;23.382;2023-04-04T10:29:53;93109.56;;;7.00;81.43
7768;BME280;3928;42.626;23.382;2023-04-04T10:32:27;93126.66;;;6.95;81.05
7768;BME280;3928;42.626;23.382;2023-04-04T10:35:02;93126.16;;;6.80;82.21
7768;BME280;3928;42.626;23.382;2023-04-04T10:37:32;93130.84;;;6.98;82.72
7768;BME280;3928;42.626;23.382;2023-04-04T10:40:04;93118.09;;;6.98;82.49
7768;BME280;3928;42.626;23.382;2023-04-04T10:42:38;93122.50;;;6.91;81.31
7768;BME280;3928;42.626;23.382;2023-04-04T10:45:07;93128.28;;;6.99;81.32
7768;BME280;3928;42.626;23.382;2023-04-04T10:47:36;93124.97;;;6.94;80.48
7768;BME280;3928;42.626;23.382;2023-04-04T10:50:04;93125.53;;;7.07;79.52
7768;BME280;3928;42.626;23.382;2023-04-04T10:52:33;93132.25;;;7.13;79.77
7768;BME280;3928;42.626;23.382;2023-04-04T10:55:02;93122.75;;;7.18;78.79
7768;BME280;3928;42.626;23.382;2023-04-04T10:57:31;93110.75;;;7.23;78.08
7768;BME280;3928;42.626;23.382;2023-04-04T11:00:01;93114.72;;;7.35;77.06
7768;BME280;3928;42.626;23.382;2023-04-04T11:02:48;93130.13;;;7.30;76.54
7768;BME280;3928;42.626;23.382;2023-04-04T11:05:20;93142.88;;;7.30;76.10
7768;BME280;3928;42.626;23.382;2023-04-04T11:07:51;93136.91;;;7.31;76.46
7768;BME280;3928;42.626;23.382;2023-04-04T11:10:21;93148.47;;;7.09;76.59
7768;BME280;3928;42.626;23.382;2023-04-04T11:12:52;93139.75;;;7.19;76.09
7768;BME280;3928;42.626;23.382;2023-04-04T11:15:21;93146.66;;;7.14;75.50
7768;BME280;3928;42.626;23.382;2023-04-04T11:17:56;93148.03;;;6.90;76.83
7768;BME280;3928;42.626;23.382;2023-04-04T11:20:28;93150.03;;;7.16;76.95
7768;BME280;3928;42.626;23.382;2023-04-04T11:23:02;93146.94;;;7.01;75.47
7768;BME280;3928;42.626;23.382;2023-04-04T11:25:37;93145.41;;;6.93;75.54
7768;BME280;3928;42.626;23.382;2023-04-04T11:28:13;93154.66;;;6.97;76.00
7768;BME280;3928;42.626;23.382;2023-04-04T11:30:43;93154.78;;;6.92;76.93
7768;BME280;3928;42.626;23.382;2023-04-04T11:33:27;93162.63;;;6.83;76.21
7768;BME280;3928;42.626;23.382;2023-04-04T11:36:03;93153.44;;;6.76;76.10
7768;BME280;3928;42.626;23.382;2023-04-04T11:38:30;93163.38;;;6.47;75.87
7768;BME280;3928;42.626;23.382;2023-04-04T11:40:57;93168.22;;;6.59;77.46
7768;BME280;3928;42.626;23.382;2023-04-04T11:43:25;93170.03;;;6.54;77.09
7768;BME280;3928;42.626;23.382;2023-04-04T11:45:53;93165.09;;;6.44;77.90
7768;BME280;3928;42.626;23.382;2023-04-04T11:48:21;93159.44;;;6.72;77.53
7768;BME280;3928;42.626;23.382;2023-04-04T11:50:52;93158.78;;;6.64;76.58
7768;BME280;3928;42.626;23.382;2023-04-04T11:53:18;93165.09;;;6.44;77.49
7768;BME280;3928;42.626;23.382;2023-04-04T11:55:47;93158.25;;;6.47;77.69
7768;BME280;3928;42.626;23.382;2023-04-04T11:58:16;93152.84;;;6.62;77.03
7768;BME280;3928;42.626;23.382;2023-04-04T12:00:43;93167.34;;;6.60;77.82
7768;BME280;3928;42.626;23.382;2023-04-04T12:03:11;93155.97;;;6.34;78.85
7768;BME280;3928;42.626;23.382;2023-04-04T12:05:38;93173.56;;;6.47;79.06
7768;BME280;3928;42.626;23.382;2023-04-04T12:08:09;93178.66;;;6.47;78.77
7768;BME280;3928;42.626;23.382;2023-04-04T12:10:37;93169.09;;;6.58;79.09
7768;BME280;3928;42.626;23.382;2023-04-04T12:13:05;93169.41;;;6.42;78.59
7768;BME280;3928;42.626;23.382;2023-04-04T12:15:33;93183.31;;;6.25;79.23
7768;BME280;3928;42.626;23.382;2023-04-04T12:18:00;93179.88;;;6.26;80.43
7768;BME280;3928;42.626;23.382;2023-04-04T12:20:28;93181.53;;;6.30;80.87
7768;BME280;3928;42.626;23.382;2023-04-04T12:22:55;93174.69;;;6.32;80.58
7768;BME280;3928;42.626;23.382;2023-04-04T12:25:23;93185.50;;;6.44;80.68
7768;BME280;3928;42.626;23.382;2023-04-04T12:27:52;93164.34;;;6.41;80.33
7768;BME280;3928;42.626;23.382;2023-04-04T12:30:20;93137.81;;;6.06;80.68
7768;BME280;3928;42.626;23.382;2023-04-04T12:32:48;93167.03;;;6.33;80.68
7768;BME280;3928;42.626;23.382;2023-04-04T12:35:16;93180.94;;;6.14;81.30
7768;BME280;3928;42.626;23.382;2023-04-04T12:37:57;93178.66;;;6.00;81.28
7768;BME280;3928;42.626;23.382;2023-04-04T12:40:28;93185.38;;;6.06;81.39
7768;BME280;3928;42.626;23.382;2023-04-04T12:42:56;93182.72;;;6.10;82.10
7768;BME280;3928;42.626;23.382;2023-04-04T12:45:24;93182.47;;;6.24;82.86
7768;BME280;3928;42.626;23.382;2023-04-04T12:47:53;93177.38;;;6.24;81.61
7768;BME280;3928;42.626;23.382;2023-04-04T12:50:22;93151.50;;;5.99;81.22
7768;BME280;3928;42.626;23.382;2023-04-04T12:52:51;93172.25;;;5.76;83.24
7768;BME280;3928;42.626;23.382;2023-04-04T12:55:20;93184.38;;;5.61;84.31
7768;BME280;3928;42.626;23.382;2023-04-04T12:57:49;93192.06;;;5.59;85.32
7768;BME280;3928;42.626;23.382;2023-04-04T13:00:19;93171.91;;;5.44;86.19
7768;BME280;3928;42.626;23.382;2023-04-04T13:02:48;93186.72;;;5.74;85.81
7768;BME280;3928;42.626;23.382;2023-04-04T13:05:17;93209.44;;;5.85;85.97
7768;BME280;3928;42.626;23.382;2023-04-04T13:07:46;93206.22;;;5.74;85.91
7768;BME280;3928;42.626;23.382;2023-04-04T13:10:14;93213.31;;;5.56;86.40
7768;BME280;3928;42.626;23.382;2023-04-04T13:12:57;93208.81;;;5.72;86.51
7768;BME280;3928;42.626;23.382;2023-04-04T13:15:47;93226.69;;;5.66;85.64
7768;BME280;3928;42.626;23.382;2023-04-04T13:18:16;93215.72;;;5.64;86.22
7768;BME280;3928;42.626;23.382;2023-04-04T13:20:43;93215.50;;;5.76;86.53